.
WxDataArchive / Data Records for 2007-01-01
2006-12-31 January 2007 2007-01-02

Data Records for Monday, 01 January 2007

Time	Temp	Chill	HIndex	Humid	Dewpt	 Wind 	HiWind	WindDir	Rain 	Barom 
-----	----	-----	------	-----	-----	------	------	-------	-----	----- 
00:00	45.4	45.4	45.4	85	41.2	3	7	270	0.00	29.671 
00:05	45.4	43.6	45.4	84	40.9	4	9	248	0.00	29.671 
00:10	45.5	43.7	45.5	84	41.0	4	12	270	0.00	29.671 
00:15	45.5	43.7	45.5	84	41.0	4	10	270	0.00	29.671 
00:20	45.5	45.5	45.5	84	41.0	3	9	248	0.00	29.671 
00:25	45.5	45.5	45.5	84	41.0	3	7	248	0.00	29.671 
00:30	45.4	45.4	45.4	85	41.2	3	6	248	0.00	29.672 
00:35	45.4	45.4	45.4	85	41.2	3	7	270	0.00	29.672 
00:40	45.4	43.6	45.4	85	41.2	4	10	270	0.00	29.672 
00:45	45.5	42.9	45.5	84	41.0	5	9	248	0.00	29.669 
00:50	45.5	42.9	45.5	82	40.3	5	11	270	0.00	29.669 
00:55	45.5	42.9	45.5	81	40.0	5	10	248	0.00	29.669 
01:00	45.7	42.5	45.7	80	39.9	6	12	270	0.00	29.674 
01:05	45.8	41.7	45.8	78	39.3	8	21	270	0.00	29.674 
01:10	45.2	42.0	45.2	81	39.7	6	13	270	0.01	29.674 
01:15	44.8	41.5	44.8	82	39.6	6	15	248	0.00	29.680 
01:20	44.6	41.2	44.6	81	39.1	6	15	270	0.00	29.680 
01:25	44.6	41.9	44.6	81	39.1	5	11	270	0.00	29.680 
01:30	44.5	41.8	44.5	80	38.7	5	11	270	0.00	29.680 
01:35	44.5	41.8	44.5	79	38.4	5	11	270	0.00	29.680 
01:40	44.5	40.6	44.5	78	38.1	7	14	270	0.00	29.680 
01:45	44.6	40.7	44.6	77	37.8	7	14	270	0.00	29.688 
01:50	44.6	40.7	44.6	77	37.8	7	17	248	0.00	29.688 
01:55	44.5	41.1	44.5	77	37.7	6	16	270	0.00	29.688 
02:00	44.5	42.5	44.5	78	38.1	4	12	270	0.00	29.693 
02:05	44.2	41.4	44.2	79	38.1	5	11	270	0.00	29.693 
02:10	44.2	40.2	44.2	78	37.8	7	16	270	0.00	29.693 
02:15	44.2	42.2	44.2	80	38.4	4	11	270	0.00	29.700 
02:20	44.1	44.1	44.1	80	38.3	3	7	270	0.00	29.700 
02:25	43.9	41.8	43.9	80	38.1	4	15	270	0.00	29.700 
02:30	43.9	41.8	43.9	80	38.1	4	10	248	0.00	29.703 
02:35	43.9	41.8	43.9	80	38.1	4	11	270	0.00	29.703 
02:40	44.1	42.1	44.1	79	38.0	4	10	270	0.00	29.703 
02:45	44.1	40.1	44.1	76	37.0	7	19	248	0.00	29.706 
02:50	44.1	39.6	44.1	74	36.4	8	14	270	0.00	29.706 
02:55	44.1	41.3	44.1	74	36.4	5	10	270	0.00	29.706 
03:00	44.1	41.3	44.1	74	36.4	5	9	270	0.00	29.704 
03:05	43.8	41.7	43.8	74	36.1	4	12	248	0.00	29.704 
03:10	43.5	40.6	43.5	73	35.4	5	14	270	0.00	29.704 
03:15	43.3	40.3	43.3	74	35.6	5	11	270	0.00	29.700 
03:20	43.2	40.2	43.2	74	35.5	5	10	270	0.00	29.700 
03:25	43.1	39.5	43.1	75	35.7	6	14	270	0.00	29.700 
03:30	43.1	40.9	43.1	75	35.7	4	11	270	0.00	29.695 
03:35	42.9	39.9	42.9	75	35.5	5	14	270	0.00	29.695 
03:40	42.8	40.6	42.8	75	35.4	4	9	248	0.00	29.695 
03:45	42.6	39.5	42.6	75	35.2	5	13	248	0.00	29.697 
03:50	42.5	40.2	42.5	76	35.5	4	11	270	0.00	29.697 
03:55	42.5	40.2	42.5	76	35.5	4	13	248	0.00	29.697 
04:00	42.2	42.2	42.2	77	35.5	2	5	248	0.00	29.700 
04:05	42.2	42.2	42.2	77	35.5	3	7	248	0.00	29.700 
04:10	42.2	42.2	42.2	77	35.5	2	6	248	0.00	29.700 
04:15	42.3	42.3	42.3	77	35.6	3	7	248	0.00	29.705 
04:20	42.5	42.5	42.5	77	35.8	3	7	248	0.00	29.705 
04:25	42.5	42.5	42.5	77	35.8	3	7	248	0.00	29.705 
04:30	42.5	42.5	42.5	78	36.1	3	6	270	0.00	29.704 
04:35	42.5	42.5	42.5	78	36.1	2	5	248	0.00	29.704 
04:40	42.5	42.5	42.5	78	36.1	3	7	248	0.00	29.704 
04:45	42.5	42.5	42.5	78	36.1	2	5	248	0.00	29.699 
04:50	42.5	42.5	42.5	79	36.5	3	8	248	0.00	29.699 
04:55	42.5	42.5	42.5	79	36.5	2	5	248	0.00	29.699 
05:00	42.5	42.5	42.5	79	36.5	2	5	248	0.00	29.697 
05:05	42.3	42.3	42.3	80	36.6	2	7	248	0.00	29.697 
05:10	42.3	42.3	42.3	80	36.6	2	6	248	0.00	29.697 
05:15	42.3	42.3	42.3	80	36.6	2	6	248	0.00	29.694 
05:20	42.3	42.3	42.3	81	36.9	1	4	248	0.00	29.694 
05:25	42.3	42.3	42.3	81	36.9	1	4	225	0.00	29.694 
05:30	42.2	42.2	42.2	83	37.4	2	5	248	0.00	29.701 
05:35	42.1	42.1	42.1	84	37.6	2	9	248	0.00	29.701 
05:40	41.8	41.8	41.8	86	37.9	2	5	248	0.00	29.701 
05:45	41.6	41.6	41.6	87	38.0	1	5	248	0.00	29.703 
05:50	41.3	41.3	41.3	89	38.3	2	6	248	0.01	29.703 
05:55	41.1	41.1	41.1	88	37.8	2	10	270	0.00	29.703 
06:00	40.5	40.5	40.5	87	36.9	3	7	270	0.00	29.715 
06:05	40.1	37.4	40.1	86	36.3	4	9	270	0.00	29.715 
06:10	39.8	39.8	39.8	86	36.0	3	6	270	0.00	29.715 
06:15	39.6	36.9	39.6	85	35.5	4	8	270	0.00	29.720 
06:20	39.6	36.0	39.6	85	35.5	5	10	270	0.00	29.720 
06:25	39.5	39.5	39.5	85	35.4	3	6	270	0.00	29.720 
06:30	39.5	39.5	39.5	85	35.4	3	6	270	0.00	29.722 
06:35	39.5	35.9	39.5	84	35.1	5	13	270	0.00	29.722 
06:40	39.5	36.7	39.5	84	35.1	4	11	248	0.00	29.722 
06:45	39.5	39.5	39.5	84	35.1	3	10	270	0.00	29.722 
06:50	39.3	39.3	39.3	84	34.9	2	6	248	0.00	29.722 
06:55	39.3	39.3	39.3	84	34.9	3	7	248	0.00	29.722 
07:00	39.2	39.2	39.2	84	34.8	3	9	270	0.00	29.724 
07:05	39.2	39.2	39.2	84	34.8	3	9	248	0.00	29.724 
07:10	39.1	35.4	39.1	84	34.7	5	11	248	0.00	29.724 
07:15	39.1	36.3	39.1	82	34.1	4	11	270	0.00	29.724 
07:20	38.9	36.0	38.9	82	33.9	4	12	248	0.00	29.724 
07:25	38.9	38.9	38.9	82	33.9	2	7	270	0.00	29.724 
07:30	38.8	35.9	38.8	81	33.5	4	11	270	0.00	29.733 
07:35	38.6	38.6	38.6	79	32.7	3	9	270	0.00	29.733 
07:40	38.5	35.6	38.5	79	32.6	4	8	270	0.00	29.733 
07:45	38.3	35.4	38.3	79	32.4	4	11	270	0.00	29.738 
07:50	38.2	35.2	38.2	80	32.6	4	10	248	0.00	29.738 
07:55	38.0	34.1	38.0	79	32.1	5	13	270	0.00	29.738 
08:00	38.0	34.1	38.0	79	32.1	5	10	270	0.00	29.744 
08:05	37.9	34.9	37.9	79	32.0	4	14	270	0.00	29.744 
08:10	37.9	34.0	37.9	79	32.0	5	14	270	0.00	29.744 
08:15	37.8	34.8	37.8	79	31.9	4	11	270	0.00	29.752 
08:20	37.8	34.8	37.8	80	32.2	4	12	270	0.00	29.752 
08:25	37.6	34.5	37.6	80	32.0	4	10	270	0.00	29.752 
08:30	37.5	33.5	37.5	81	32.2	5	11	270	0.00	29.755 
08:35	37.3	34.2	37.3	81	32.0	4	10	248	0.00	29.755 
08:40	37.2	31.8	37.2	78	31.0	7	15	248	0.00	29.755 
08:45	37.0	32.2	37.0	78	30.8	6	18	270	0.00	29.767 
08:50	36.9	33.7	36.9	78	30.7	4	12	270	0.00	29.767 
08:55	36.8	33.6	36.8	79	30.9	4	12	270	0.00	29.767 
09:00	36.6	33.4	36.6	80	31.0	4	12	248	0.00	29.773 
09:05	36.5	36.5	36.5	81	31.2	3	13	248	0.00	29.773 
09:10	36.0	31.8	36.0	81	30.7	5	13	270	0.00	29.773 
09:15	35.8	31.5	35.8	81	30.6	5	12	270	0.00	29.788 
09:20	35.5	32.1	35.5	81	30.3	4	7	270	0.00	29.788 
09:25	35.2	31.8	35.2	81	30.0	4	11	270	0.00	29.788 
09:30	35.0	35.0	35.0	83	30.4	3	7	270	0.00	29.791 
09:35	34.7	31.2	34.7	84	30.4	4	12	270	0.00	29.791 
09:40	34.4	34.4	34.4	85	30.4	3	7	270	0.00	29.791 
09:45	34.1	30.5	34.1	86	30.4	4	9	270	0.00	29.803 
09:50	34.0	29.4	34.0	86	30.3	5	11	270	0.00	29.803 
09:55	34.0	30.4	34.0	87	30.5	4	10	270	0.00	29.803 
10:00	33.8	29.2	33.8	87	30.3	5	12	270	0.00	29.807 
10:05	33.8	30.2	33.8	87	30.3	4	10	248	0.00	29.807 
10:10	33.8	29.2	33.8	87	30.3	5	16	270	0.00	29.807 
10:15	33.8	29.2	33.8	85	29.8	5	16	270	0.00	29.822 
10:20	33.7	29.1	33.7	85	29.7	5	15	270	0.00	29.822 
10:25	33.7	30.0	33.7	86	30.0	4	11	270	0.00	29.822 
10:30	33.5	28.8	33.5	86	29.8	5	12	270	0.00	29.825 
10:35	33.5	28.8	33.5	86	29.8	5	14	270	0.00	29.825 
10:40	33.5	29.8	33.5	86	29.8	4	9	270	0.00	29.825 
10:45	33.5	28.8	33.5	86	29.8	5	16	270	0.00	29.829 
10:50	33.5	28.8	33.5	86	29.8	5	11	270	0.00	29.829 
10:55	33.4	33.4	33.4	86	29.7	3	9	270	0.00	29.829 
11:00	33.4	33.4	33.4	86	29.7	3	8	270	0.00	29.831 
11:05	33.5	29.8	33.5	86	29.8	4	13	248	0.00	29.831 
11:10	33.5	29.8	33.5	86	29.8	4	10	248	0.00	29.831 
11:15	33.5	29.8	33.5	87	30.1	4	7	248	0.00	29.830 
11:20	33.7	33.7	33.7	87	30.3	3	14	270	0.00	29.830 
11:25	33.7	33.7	33.7	87	30.3	2	5	248	0.00	29.830 
11:30	33.7	33.7	33.7	87	30.3	3	7	248	0.00	29.829 
11:35	33.5	29.8	33.5	88	30.3	4	11	248	0.00	29.829 
11:40	33.5	33.5	33.5	88	30.3	3	9	270	0.00	29.829 
11:45	33.5	29.8	33.5	88	30.3	4	12	248	0.00	29.830 
11:50	33.5	29.8	33.5	88	30.3	4	9	270	0.00	29.830 
11:55	33.7	30.0	33.7	88	30.5	4	10	248	0.00	29.830 
12:00	33.7	33.7	33.7	88	30.5	3	11	248	0.00	29.829 
12:05	33.7	33.7	33.7	88	30.5	3	9	270	0.00	29.829 
12:10	33.7	33.7	33.7	88	30.5	3	10	248	0.00	29.829 
12:15	33.8	29.2	33.8	88	30.6	5	11	270	0.00	29.830 
12:20	33.8	33.8	33.8	88	30.6	3	10	270	0.00	29.830 
12:25	33.8	30.2	33.8	88	30.6	4	13	270	0.00	29.830 
12:30	34.0	34.0	34.0	88	30.8	2	6	248	0.00	29.830 
12:35	34.1	34.1	34.1	88	30.9	3	7	248	0.00	29.830 
12:40	34.1	34.1	34.1	88	30.9	3	10	248	0.00	29.830 
12:45	34.3	30.7	34.3	88	31.1	4	10	248	0.00	29.833 
12:50	34.3	30.7	34.3	88	31.1	4	12	270	0.00	29.833 
12:55	34.3	34.3	34.3	88	31.1	3	10	270	0.00	29.833 
13:00	34.4	34.4	34.4	89	31.5	2	6	270	0.00	29.831 
13:05	34.4	34.4	34.4	89	31.5	3	10	270	0.00	29.831 
13:10	34.4	34.4	34.4	89	31.5	3	7	248	0.00	29.831 
13:15	34.4	30.8	34.4	89	31.5	4	11	270	0.00	29.833 
13:20	34.6	31.1	34.6	89	31.7	4	10	270	0.00	29.833 
13:25	34.6	31.1	34.6	89	31.7	4	9	270	0.00	29.833 
13:30	34.7	34.7	34.7	89	31.8	3	9	270	0.00	29.837 
13:35	34.9	34.9	34.9	89	32.0	3	11	248	0.00	29.837 
13:40	34.9	34.9	34.9	89	32.0	3	9	270	0.00	29.837 
13:45	35.0	35.0	35.0	89	32.1	3	9	270	0.00	29.840 
13:50	35.0	31.5	35.0	89	32.1	4	13	248	0.00	29.840 
13:55	35.0	31.5	35.0	89	32.1	4	10	270	0.00	29.840 
14:00	35.2	35.2	35.2	90	32.6	3	9	248	0.00	29.845 
14:05	35.3	35.3	35.3	90	32.7	2	7	248	0.00	29.845 
14:10	35.3	35.3	35.3	90	32.7	3	8	270	0.00	29.845 
14:15	35.5	32.1	35.5	90	32.9	4	9	270	0.00	29.857 
14:20	35.5	32.1	35.5	90	32.9	4	10	270	0.00	29.857 
14:25	35.6	32.2	35.6	90	33.0	4	11	270	0.00	29.857 
14:30	35.8	35.8	35.8	90	33.2	3	6	270	0.00	29.864 
14:35	35.9	35.9	35.9	90	33.3	3	7	270	0.00	29.864 
14:40	35.9	35.9	35.9	90	33.3	3	12	270	0.00	29.864 
14:45	36.0	36.0	36.0	90	33.4	3	7	270	0.00	29.874 
14:50	36.2	32.9	36.2	91	33.8	4	9	270	0.00	29.874 
14:55	36.2	36.2	36.2	91	33.8	3	11	270	0.00	29.874 
15:00	36.3	36.3	36.3	91	33.9	3	7	270	0.00	29.881 
15:05	36.5	36.5	36.5	91	34.1	2	11	270	0.00	29.881 
15:10	36.6	36.6	36.6	91	34.2	3	7	270	0.00	29.881 
15:15	36.8	36.8	36.8	92	34.7	2	7	270	0.00	29.890 
15:20	36.9	36.9	36.9	91	34.5	2	5	270	0.00	29.890 
15:25	37.0	37.0	37.0	91	34.6	2	6	270	0.00	29.890 
15:30	37.0	37.0	37.0	91	34.6	3	6	270	0.00	29.901 
15:35	37.2	37.2	37.2	91	34.8	2	5	248	0.00	29.901 
15:40	37.3	37.3	37.3	90	34.6	2	6	270	0.00	29.901 
15:45	37.5	37.5	37.5	90	34.8	2	4	270	0.00	29.905 
15:50	37.6	37.6	37.6	90	34.9	2	4	270	0.00	29.905 
15:55	37.8	37.8	37.8	90	35.1	2	6	270	0.00	29.905 
16:00	37.9	37.9	37.9	89	35.0	2	5	270	0.00	29.920 
16:05	38.0	38.0	38.0	89	35.1	2	5	270	0.00	29.920 
16:10	38.2	38.2	38.2	89	35.2	2	4	248	0.00	29.920 
16:15	38.2	38.2	38.2	88	35.0	2	4	270	0.00	29.935 
16:20	38.3	38.3	38.3	88	35.1	3	7	270	0.00	29.935 
16:25	38.5	38.5	38.5	88	35.3	1	4	292	0.00	29.935 
16:30	38.6	38.6	38.6	88	35.4	2	4	270	0.00	29.948 
16:35	38.8	38.8	38.8	88	35.6	3	7	270	0.00	29.948 
16:40	38.9	38.9	38.9	87	35.4	2	7	270	0.00	29.948 
16:45	38.9	38.9	38.9	87	35.4	2	4	292	0.00	29.958 
16:50	39.1	39.1	39.1	86	35.3	2	5	270	0.00	29.958 
16:55	39.2	39.2	39.2	86	35.4	3	6	270	0.00	29.958 
17:00	39.3	39.3	39.3	85	35.2	2	5	292	0.00	29.969 
17:05	39.3	39.3	39.3	85	35.2	3	6	292	0.00	29.969 
17:10	39.1	39.1	39.1	86	35.3	2	5	270	0.00	29.969 
17:15	38.9	38.9	38.9	85	34.8	3	7	292	0.00	29.986 
17:20	38.9	38.9	38.9	85	34.8	2	5	315	0.00	29.986 
17:25	38.9	38.9	38.9	85	34.8	2	6	315	0.00	29.986 
17:30	38.9	38.9	38.9	83	34.2	3	10	270	0.00	30.000 
17:35	38.8	38.8	38.8	82	33.8	3	7	292	0.00	30.000 
17:40	38.9	38.9	38.9	83	34.2	2	6	315	0.00	30.000 
17:45	38.9	38.9	38.9	82	33.9	2	6	292	0.00	30.014 
17:50	38.9	38.9	38.9	81	33.6	2	11	315	0.00	30.014 
17:55	38.9	38.9	38.9	81	33.6	2	7	315	0.00	30.014 
18:00	39.1	39.1	39.1	80	33.5	2	5	315	0.00	30.029 
18:05	39.1	39.1	39.1	81	33.8	2	6	315	0.00	30.029 
18:10	39.1	39.1	39.1	81	33.8	1	4	270	0.00	30.029 
18:15	39.1	39.1	39.1	81	33.8	2	6	315	0.00	30.044 
18:20	38.9	38.9	38.9	80	33.3	2	7	292	0.00	30.044 
18:25	38.9	38.9	38.9	79	33.0	3	11	315	0.00	30.044 
18:30	38.9	38.9	38.9	79	33.0	2	6	292	0.00	30.053 
18:35	38.8	38.8	38.8	79	32.9	3	9	315	0.00	30.053 
18:40	38.5	38.5	38.5	79	32.6	3	6	315	0.00	30.053 
18:45	38.3	38.3	38.3	79	32.4	3	7	315	0.00	30.067 
18:50	38.3	38.3	38.3	78	32.1	3	9	338	0.00	30.067 
18:55	38.3	38.3	38.3	78	32.1	3	9	270	0.00	30.067 
19:00	38.2	38.2	38.2	78	32.0	3	8	315	0.00	30.080 
19:05	38.2	38.2	38.2	78	32.0	3	6	292	0.00	30.080 
19:10	38.0	38.0	38.0	79	32.1	2	9	270	0.00	30.080 
19:15	37.8	37.8	37.8	80	32.2	2	6	292	0.00	30.084 
19:20	37.6	37.6	37.6	80	32.0	2	5	292	0.00	30.084 
19:25	37.5	37.5	37.5	81	32.2	2	10	270	0.00	30.084 
19:30	37.5	37.5	37.5	81	32.2	2	4	270	0.00	30.096 
19:35	37.5	37.5	37.5	81	32.2	2	10	315	0.00	30.096 
19:40	37.8	34.8	37.8	79	31.9	4	10	315	0.00	30.096 
19:45	37.8	37.8	37.8	80	32.2	3	6	315	0.00	30.111 
19:50	37.6	37.6	37.6	80	32.0	3	11	338	0.00	30.111 
19:55	37.6	37.6	37.6	81	32.3	2	9	292	0.00	30.111 
20:00	37.6	37.6	37.6	81	32.3	2	5	315	0.00	30.114 
20:05	37.6	37.6	37.6	81	32.3	1	5	292	0.00	30.114 
20:10	37.6	37.6	37.6	82	32.6	1	3	315	0.00	30.114 
20:15	37.6	37.6	37.6	82	32.6	1	3	315	0.00	30.126 
20:20	37.6	37.6	37.6	81	32.3	1	4	270	0.00	30.126 
20:25	37.6	37.6	37.6	79	31.7	2	4	315	0.00	30.126 
20:30	37.8	37.8	37.8	77	31.2	2	6	315	0.00	30.130 
20:35	37.8	37.8	37.8	74	30.3	3	7	315	0.00	30.130 
20:40	37.8	37.8	37.8	73	29.9	3	9	292	0.00	30.130 
20:45	37.8	37.8	37.8	72	29.6	2	8	292	0.00	30.133 
20:50	37.5	37.5	37.5	73	29.6	2	7	315	0.00	30.133 
20:55	37.3	37.3	37.3	74	29.8	1	5	292	0.00	30.133 
21:00	37.0	37.0	37.0	75	29.8	1	3	270	0.00	30.148 
21:05	36.9	36.9	36.9	76	30.1	1	6	270	0.00	30.148 
21:10	36.6	36.6	36.6	77	30.1	1	3	338	0.00	30.148 
21:15	36.5	36.5	36.5	77	30.0	1	5	315	0.00	30.161 
21:20	36.5	36.5	36.5	77	30.0	1	6	292	0.00	30.161 
21:25	36.3	36.3	36.3	76	29.5	1	4	315	0.00	30.161 
21:30	36.3	36.3	36.3	76	29.5	1	4	315	0.00	30.171 
21:35	36.2	36.2	36.2	76	29.4	1	3	292	0.00	30.171 
21:40	36.0	36.0	36.0	76	29.2	1	3	315	0.00	30.171 
21:45	35.9	35.9	35.9	76	29.1	1	3	338	0.00	30.179 
21:50	35.8	35.8	35.8	76	29.0	1	4	292	0.00	30.179 
21:55	35.9	35.9	35.9	76	29.1	1	4	292	0.00	30.179 
22:00	35.6	35.6	35.6	76	28.8	0	3	292	0.00	30.190 
22:05	35.5	35.5	35.5	76	28.7	1	3	315	0.00	30.190 
22:10	35.5	35.5	35.5	76	28.7	0	4	338	0.00	30.190 
22:15	35.2	35.2	35.2	76	28.4	0	2	315	0.00	30.200 
22:20	35.0	35.0	35.0	77	28.5	0	2	270	0.00	30.200 
22:25	34.9	34.9	34.9	77	28.4	0	2	315	0.00	30.200 
22:30	34.7	34.7	34.7	77	28.2	0	1	315	0.00	30.209 
22:35	34.6	34.6	34.6	78	28.5	0	1	315	0.00	30.209 
22:40	34.4	34.4	34.4	78	28.3	0	1	315	0.00	30.209 
22:45	34.3	34.3	34.3	79	28.5	0	1	315	0.00	30.214 
22:50	34.0	34.0	34.0	79	28.2	0	1	315	0.00	30.214 
22:55	33.8	33.8	33.8	80	28.3	0	2	315	0.00	30.214 
23:00	33.7	33.7	33.7	80	28.2	0	1	315	0.00	30.221 
23:05	33.5	33.5	33.5	80	28.0	0	2	292	0.00	30.221 
23:10	33.4	33.4	33.4	81	28.2	0	1	292	0.00	30.221 
23:15	33.1	33.1	33.1	81	27.9	0	1	292	0.00	30.230 
23:20	33.1	33.1	33.1	81	27.9	0	1	292	0.00	30.230 
23:25	32.9	32.9	32.9	81	27.7	0	1	292	0.00	30.230 
23:30	32.8	32.8	32.8	81	27.6	0	1	292	0.00	30.233 
23:35	32.5	32.5	32.5	81	27.3	0	1	292	0.00	30.233 
23:40	32.4	32.4	32.4	82	27.5	0	1	292	0.00	30.233 
23:45	32.2	32.2	32.2	82	27.3	0	0	---	0.00	30.240 
23:50	31.9	31.9	31.9	82	27.0	0	1	292	0.00	30.240 
23:55	31.8	31.8	31.8	83	27.2	0	1	292	0.00	30.240 

CoCoRaHS
IN-AL-39
A2 Web Hosting
Creative Commons License
GoDaddy
Look for:

loaded 2017-10-17 09:26:27 • last modified 2010-11-18 10:43:29
Privacy PolicyDisclaimer
• wx.awcolley.com is powered by PmWiki v.2002016 •
• all content (unless otherwise noted) © 2017 A W Colley